Time;durP1;ratioP1;P1;durP2;ratioP2;P2;SDS_P1;SDS_P2;PMS_P1;PMS_P2;Temp;Humidity;BMP_temperature;BMP_pressure;BME280_temperature;BME280_humidity;BME280_pressure;Samples;Min_cycle;Max_cycle;Signal;HPM_P1;HPM_P2
2023/12/26 00:01:46;;;;;;;1.70;0.50;;;11.80;99.90;;;;;;4143750;28;20073;-73
2023/12/26 00:03:47;;;;;;;0.85;0.43;;;11.90;99.90;;;;;;4144493;28;20049;-74
2023/12/26 00:05:47;;;;;;;0.68;0.40;;;11.80;99.90;;;;;;4143089;28;20462;-74
2023/12/26 00:07:48;;;;;;;2.22;0.47;;;11.80;99.90;;;;;;4143653;28;20114;-74
2023/12/26 00:09:48;;;;;;;0.70;0.40;;;11.80;99.90;;;;;;4143377;28;20034;-74
2023/12/26 00:11:49;;;;;;;1.50;0.55;;;11.80;99.90;;;;;;4135552;28;20093;-72
2023/12/26 00:13:49;;;;;;;2.38;0.73;;;11.80;99.90;;;;;;4144192;28;20034;-72
2023/12/26 00:15:51;;;;;;;2.35;0.50;;;11.80;99.90;;;;;;4140847;28;20030;-72
2023/12/26 00:17:52;;;;;;;1.05;0.40;;;11.80;99.90;;;;;;4140519;28;20040;-73
2023/12/26 00:19:53;;;;;;;1.58;0.20;;;11.80;99.90;;;;;;4142530;28;20386;-86
2023/12/26 00:21:53;;;;;;;1.35;0.43;;;11.80;99.90;;;;;;4141843;28;20054;-69
2023/12/26 00:23:54;;;;;;;0.30;0.30;;;11.80;99.90;;;;;;4136796;28;20049;-69
2023/12/26 00:25:54;;;;;;;1.23;0.70;;;11.80;99.90;;;;;;4140122;28;20105;-70
2023/12/26 00:27:55;;;;;;;1.40;0.35;;;11.80;99.90;;;;;;4140006;28;20041;-69
2023/12/26 00:29:55;;;;;;;1.58;0.50;;;11.80;99.90;;;;;;4140063;28;20038;-70
2023/12/26 00:31:56;;;;;;;1.08;0.73;;;11.90;99.90;;;;;;4141393;28;20038;-70
2023/12/26 00:33:57;;;;;;;2.83;0.55;;;11.80;99.90;;;;;;4138280;28;20034;-69
2023/12/26 00:35:59;;;;;;;1.33;0.60;;;11.80;99.90;;;;;;4140142;28;20030;-69
2023/12/26 00:38:01;;;;;;;1.80;0.63;;;11.80;99.90;;;;;;4140538;28;20050;-70
2023/12/26 00:40:03;;;;;;;1.03;0.60;;;11.80;99.90;;;;;;4140097;28;20031;-70
2023/12/26 00:42:04;;;;;;;1.27;0.35;;;11.80;99.90;;;;;;4138705;28;20360;-70
2023/12/26 00:44:04;;;;;;;1.38;0.52;;;11.80;99.90;;;;;;4138191;28;20544;-69
2023/12/26 00:46:06;;;;;;;0.95;0.57;;;11.80;99.90;;;;;;4134332;28;20410;-69
2023/12/26 00:48:07;;;;;;;0.80;0.50;;;11.80;99.90;;;;;;4139366;28;20101;-69
2023/12/26 00:50:11;;;;;;;2.15;0.30;;;11.80;99.90;;;;;;4144184;28;20037;-70
2023/12/26 00:52:12;;;;;;;0.75;0.32;;;11.80;99.90;;;;;;4137964;28;20528;-69
2023/12/26 00:54:12;;;;;;;0.60;0.50;;;11.70;99.90;;;;;;4141447;28;20069;-70
2023/12/26 00:56:13;;;;;;;1.38;0.52;;;11.70;99.90;;;;;;4141831;28;20544;-70
2023/12/26 00:58:14;;;;;;;1.15;0.70;;;11.70;99.90;;;;;;4136951;28;20473;-69
2023/12/26 01:00:14;;;;;;;0.52;0.40;;;11.70;99.90;;;;;;4136392;28;20512;-71
2023/12/26 01:02:15;;;;;;;0.75;0.40;;;11.70;99.90;;;;;;4140043;28;20050;-70
2023/12/26 01:04:17;;;;;;;2.53;0.50;;;11.60;99.90;;;;;;4140278;28;20037;-71
2023/12/26 01:06:18;;;;;;;1.10;0.60;;;11.50;99.90;;;;;;4137464;28;20196;-70
2023/12/26 01:08:19;;;;;;;2.05;0.52;;;11.50;99.90;;;;;;4140144;28;20835;-70
2023/12/26 01:10:19;;;;;;;1.45;0.60;;;11.50;99.90;;;;;;4141729;28;20486;-71
2023/12/26 01:12:20;;;;;;;1.42;0.50;;;11.50;99.90;;;;;;4141007;28;20121;-70
2023/12/26 01:14:20;;;;;;;1.25;0.50;;;11.40;99.90;;;;;;4138308;28;20043;-70
2023/12/26 01:16:25;;;;;;;1.63;0.40;;;11.40;99.90;;;;;;4140122;28;20046;-70
2023/12/26 01:18:26;;;;;;;0.55;0.40;;;11.40;99.90;;;;;;4140177;28;20558;-70
2023/12/26 01:20:26;;;;;;;1.33;0.40;;;11.40;99.90;;;;;;4134172;28;20030;-70
2023/12/26 01:22:27;;;;;;;0.85;0.32;;;11.40;99.90;;;;;;4138417;28;20045;-71
2023/12/26 01:24:27;;;;;;;1.23;0.40;;;11.40;99.90;;;;;;4138978;28;20421;-70
2023/12/26 01:26:30;;;;;;;0.68;0.50;;;11.30;99.90;;;;;;4139304;28;20030;-71
2023/12/26 01:28:31;;;;;;;0.40;0.30;;;11.30;99.90;;;;;;4138299;28;20449;-71
2023/12/26 01:30:31;;;;;;;1.27;0.70;;;11.40;99.90;;;;;;4132360;28;20034;-69
2023/12/26 01:32:32;;;;;;;1.30;0.40;;;11.40;99.90;;;;;;4139412;28;20386;-69
2023/12/26 01:34:33;;;;;;;1.30;0.40;;;11.30;99.90;;;;;;4139383;28;20120;-69
2023/12/26 01:36:33;;;;;;;0.75;0.40;;;11.30;99.90;;;;;;4142962;28;20394;-69
2023/12/26 01:38:34;;;;;;;1.30;0.40;;;11.30;99.90;;;;;;4147066;28;20073;-69
2023/12/26 01:40:34;;;;;;;0.98;0.43;;;11.30;99.90;;;;;;4138801;28;20103;-69
2023/12/26 01:42:36;;;;;;;0.90;0.30;;;11.30;99.90;;;;;;4139469;28;20053;-70
2023/12/26 01:44:37;;;;;;;0.52;0.50;;;11.30;99.90;;;;;;4132212;28;20042;-69
2023/12/26 01:46:38;;;;;;;1.10;0.50;;;11.30;99.90;;;;;;4136582;28;20052;-70
2023/12/26 01:48:39;;;;;;;0.93;0.35;;;11.30;99.90;;;;;;4132477;28;20486;-69
2023/12/26 01:50:40;;;;;;;1.83;0.40;;;11.30;99.90;;;;;;4137239;28;20037;-70
2023/12/26 01:52:41;;;;;;;1.25;0.57;;;11.20;99.90;;;;;;4140647;28;20054;-69
2023/12/26 01:54:42;;;;;;;1.40;0.40;;;11.20;99.90;;;;;;4141940;28;20034;-69
2023/12/26 01:56:42;;;;;;;1.02;0.40;;;11.20;99.90;;;;;;4138690;28;20034;-69
2023/12/26 01:58:45;;;;;;;0.82;0.60;;;11.20;99.90;;;;;;4135632;28;20045;-70
2023/12/26 02:00:48;;;;;;;1.52;0.50;;;11.20;99.90;;;;;;4136166;28;20034;-69
2023/12/26 02:02:51;;;;;;;3.60;0.35;;;11.20;99.90;;;;;;4138562;28;20455;-69
2023/12/26 02:04:52;;;;;;;0.57;0.40;;;11.20;99.90;;;;;;4141449;28;20134;-70
2023/12/26 02:06:54;;;;;;;1.10;0.30;;;11.20;99.90;;;;;;4140048;28;20069;-70
2023/12/26 02:08:55;;;;;;;0.70;0.32;;;11.20;99.90;;;;;;4139358;28;20274;-70
2023/12/26 02:10:56;;;;;;;0.90;0.50;;;11.20;99.90;;;;;;4134309;28;20038;-69
2023/12/26 02:12:57;;;;;;;0.43;0.32;;;11.10;99.90;;;;;;4142843;28;20052;-70
2023/12/26 02:14:58;;;;;;;1.95;0.50;;;11.10;99.90;;;;;;4135315;28;20030;-69
2023/12/26 02:17:01;;;;;;;1.20;0.50;;;11.10;99.90;;;;;;4134335;28;20065;-70
2023/12/26 02:19:03;;;;;;;0.50;0.40;;;11.10;99.90;;;;;;4138810;28;20061;-69
2023/12/26 02:21:04;;;;;;;0.75;0.38;;;11.10;99.90;;;;;;4132254;28;20053;-70
2023/12/26 02:23:05;;;;;;;0.57;0.13;;;11.20;99.90;;;;;;4135254;28;20042;-70
2023/12/26 02:25:08;;;;;;;1.45;0.50;;;11.10;99.90;;;;;;4136130;28;20031;-69
2023/12/26 02:27:22;;;;;;;0.20;0.20;;;11.10;99.90;;;;;;4138787;28;20034;-70
2023/12/26 02:29:24;;;;;;;1.52;0.47;;;11.10;99.90;;;;;;4140576;28;20387;-70
2023/12/26 02:31:27;;;;;;;1.15;0.60;;;11.10;99.90;;;;;;4136205;28;20088;-70
2023/12/26 02:33:30;;;;;;;0.93;0.30;;;11.10;99.90;;;;;;4131679;28;20160;-70
2023/12/26 02:35:31;;;;;;;;;;;11.10;99.90;;;;;;4131466;28;20046;-70
2023/12/26 02:37:32;;;;;;;1.42;0.20;;;11.20;99.90;;;;;;4135555;28;19917;-70
2023/12/26 02:39:32;;;;;;;0.85;0.52;;;11.10;99.90;;;;;;4142122;28;20050;-77
2023/12/26 02:41:33;;;;;;;0.68;0.30;;;11.10;99.90;;;;;;4143650;28;20037;-82
2023/12/26 02:43:34;;;;;;;0.40;0.40;;;11.10;99.90;;;;;;4135025;28;20065;-82
2023/12/26 02:45:34;;;;;;;0.47;0.32;;;11.10;99.90;;;;;;4142926;28;20062;-83
2023/12/26 02:47:35;;;;;;;0.30;0.30;;;11.10;99.90;;;;;;4142521;28;20045;-83
2023/12/26 02:49:35;;;;;;;0.50;0.40;;;11.10;99.90;;;;;;4143246;28;20065;-75
2023/12/26 02:51:36;;;;;;;2.13;0.40;;;11.10;99.90;;;;;;4136924;28;20044;-80
2023/12/26 02:53:37;;;;;;;0.93;0.40;;;11.10;99.90;;;;;;4143646;28;20060;-82
2023/12/26 02:55:38;;;;;;;0.50;0.43;;;11.00;99.90;;;;;;4143383;28;20570;-82
2023/12/26 02:57:38;;;;;;;1.83;0.38;;;11.00;99.90;;;;;;4145052;28;20057;-83
2023/12/26 02:59:39;;;;;;;0.40;0.20;;;11.10;99.90;;;;;;4138530;28;20050;-83
2023/12/26 03:01:40;;;;;;;0.52;0.25;;;11.00;99.90;;;;;;4142900;28;20099;-83
2023/12/26 03:03:40;;;;;;;0.35;0.20;;;11.00;99.90;;;;;;4139155;28;20077;-83
2023/12/26 03:05:41;;;;;;;0.50;0.20;;;11.00;99.90;;;;;;4138077;28;20118;-83
2023/12/26 03:07:41;;;;;;;0.77;0.20;;;11.00;99.90;;;;;;4136381;28;20038;-82
2023/12/26 03:09:42;;;;;;;0.57;0.25;;;11.00;99.90;;;;;;4143573;28;20038;-83
2023/12/26 03:11:42;;;;;;;1.17;0.35;;;11.00;99.90;;;;;;4158189;28;20041;-84
2023/12/26 03:13:43;;;;;;;0.75;0.20;;;11.00;99.90;;;;;;4142843;28;20474;-83
2023/12/26 03:15:44;;;;;;;0.50;0.20;;;11.00;99.90;;;;;;4141363;28;20030;-84
2023/12/26 03:17:44;;;;;;;0.55;0.30;;;11.00;99.90;;;;;;4141720;28;20423;-81
2023/12/26 03:19:45;;;;;;;0.68;0.20;;;11.00;99.90;;;;;;4143287;28;20038;-84
2023/12/26 03:21:45;;;;;;;0.20;0.10;;;11.00;99.90;;;;;;4142355;28;20038;-83
2023/12/26 03:23:46;;;;;;;0.73;0.30;;;11.00;99.90;;;;;;4142159;28;20034;-84
2023/12/26 03:25:47;;;;;;;0.65;0.32;;;11.00;99.90;;;;;;4143960;28;20072;-84
2023/12/26 03:27:48;;;;;;;0.57;0.25;;;11.00;99.90;;;;;;4137685;28;20037;-82
2023/12/26 03:29:48;;;;;;;0.20;0.20;;;11.00;99.90;;;;;;4144757;28;20121;-83
2023/12/26 03:31:49;;;;;;;0.50;0.50;;;11.00;99.90;;;;;;4142679;28;20054;-83
2023/12/26 03:33:50;;;;;;;1.17;0.28;;;11.00;99.90;;;;;;4132312;28;20041;-84
2023/12/26 03:35:50;;;;;;;0.98;0.50;;;11.00;99.90;;;;;;4141828;28;20034;-81
2023/12/26 03:37:51;;;;;;;0.35;0.17;;;11.00;99.90;;;;;;4140246;28;20057;-80
2023/12/26 03:39:51;;;;;;;0.77;0.50;;;11.00;99.90;;;;;;4132144;28;20066;-82
2023/12/26 03:41:52;;;;;;;0.22;0.22;;;11.00;99.90;;;;;;4136573;28;20066;-83
2023/12/26 03:43:52;;;;;;;0.20;0.20;;;11.00;99.90;;;;;;4143287;28;20496;-83
2023/12/26 03:45:53;;;;;;;0.90;0.28;;;11.00;99.90;;;;;;4138362;28;20429;-82
2023/12/26 03:47:53;;;;;;;0.20;0.20;;;11.00;99.90;;;;;;4143172;28;20427;-83
2023/12/26 03:49:54;;;;;;;0.35;0.13;;;11.00;99.90;;;;;;4138694;28;20042;-64
2023/12/26 03:51:55;;;;;;;0.93;0.30;;;11.00;99.90;;;;;;4136934;28;20178;-63
2023/12/26 03:53:55;;;;;;;0.70;0.30;;;11.00;99.90;;;;;;4143716;28;20347;-64
2023/12/26 03:55:56;;;;;;;0.30;0.30;;;11.00;99.90;;;;;;4131574;28;20121;-64
2023/12/26 03:57:56;;;;;;;0.95;0.40;;;11.00;99.90;;;;;;4137170;28;20077;-63
2023/12/26 03:59:58;;;;;;;2.30;0.35;;;11.00;99.90;;;;;;4138901;28;20050;-63
2023/12/26 04:01:58;;;;;;;0.20;0.20;;;11.00;99.90;;;;;;4142134;28;20034;-63
2023/12/26 04:03:59;;;;;;;1.50;0.38;;;11.00;99.90;;;;;;4128234;28;20504;-63
2023/12/26 04:06:00;;;;;;;1.25;0.40;;;11.00;99.90;;;;;;4132047;28;20053;-63
2023/12/26 04:08:00;;;;;;;0.45;0.30;;;11.00;99.90;;;;;;4138448;28;20081;-63
2023/12/26 04:10:01;;;;;;;0.70;0.30;;;11.00;99.90;;;;;;4135511;28;20035;-63
2023/12/26 04:12:02;;;;;;;1.30;0.40;;;11.00;99.90;;;;;;4136971;28;20848;-63
2023/12/26 04:14:03;;;;;;;0.57;0.40;;;11.00;99.90;;;;;;4135008;28;20037;-63
2023/12/26 04:16:04;;;;;;;1.20;0.38;;;11.00;99.90;;;;;;4140332;28;20046;-63
2023/12/26 04:18:04;;;;;;;1.17;0.40;;;11.10;99.90;;;;;;4137125;28;20046;-63
2023/12/26 04:20:05;;;;;;;0.77;0.50;;;11.10;99.90;;;;;;4135361;28;20066;-64
2023/12/26 04:22:06;;;;;;;0.75;0.35;;;11.10;99.90;;;;;;4133097;28;20149;-63
2023/12/26 04:24:06;;;;;;;2.67;0.50;;;11.10;99.90;;;;;;4139696;28;20482;-63
2023/12/26 04:26:07;;;;;;;1.50;0.60;;;11.10;99.90;;;;;;4138508;28;20037;-63
2023/12/26 04:28:08;;;;;;;0.95;0.40;;;11.10;99.90;;;;;;4129021;28;20052;-64
2023/12/26 04:30:09;;;;;;;0.50;0.30;;;11.10;99.90;;;;;;4135426;28;20092;-63
2023/12/26 04:32:10;;;;;;;0.80;0.43;;;11.10;99.90;;;;;;4131440;28;20100;-63
2023/12/26 04:34:10;;;;;;;2.25;0.75;;;11.10;99.90;;;;;;4137172;28;20033;-63
2023/12/26 04:36:11;;;;;;;4.40;0.60;;;11.10;99.90;;;;;;4134245;28;20391;-63
2023/12/26 04:38:12;;;;;;;1.25;0.40;;;11.10;99.90;;;;;;4139557;28;20042;-63
2023/12/26 04:40:12;;;;;;;2.75;0.68;;;11.10;99.90;;;;;;4135733;28;20565;-63
2023/12/26 04:42:13;;;;;;;0.70;0.30;;;11.10;99.90;;;;;;4142323;28;20041;-63
2023/12/26 04:44:14;;;;;;;2.05;0.50;;;11.10;99.90;;;;;;4138621;28;20109;-63
2023/12/26 04:46:19;;;;;;;1.35;0.40;;;11.10;99.90;;;;;;4137918;28;20118;-63
2023/12/26 04:48:19;;;;;;;1.75;0.52;;;11.10;99.90;;;;;;4141748;28;20497;-63
2023/12/26 04:50:20;;;;;;;0.38;0.32;;;11.10;99.90;;;;;;4138225;28;20070;-63
2023/12/26 04:52:21;;;;;;;0.25;0.25;;;11.10;99.90;;;;;;4139770;28;20056;-64
2023/12/26 04:54:21;;;;;;;0.75;0.47;;;11.10;99.90;;;;;;4135591;28;20089;-63
2023/12/26 04:56:22;;;;;;;0.52;0.52;;;11.10;99.90;;;;;;4132782;28;20044;-63
2023/12/26 04:58:23;;;;;;;1.55;0.50;;;11.10;99.90;;;;;;4140829;28;20066;-63
2023/12/26 05:00:23;;;;;;;1.73;0.40;;;11.10;99.90;;;;;;4135223;28;20034;-67
2023/12/26 05:02:24;;;;;;;2.38;0.60;;;11.10;99.90;;;;;;4141351;28;20486;-66
2023/12/26 05:04:25;;;;;;;2.00;0.50;;;11.10;99.90;;;;;;4134396;28;20125;-66
2023/12/26 05:06:25;;;;;;;1.48;0.40;;;11.10;99.90;;;;;;4137403;28;20513;-66
2023/12/26 05:08:26;;;;;;;2.00;0.60;;;11.10;99.90;;;;;;4141387;28;20064;-66
2023/12/26 05:10:26;;;;;;;2.00;0.77;;;11.10;99.90;;;;;;4134221;28;20095;-66
2023/12/26 05:12:28;;;;;;;0.80;0.40;;;11.10;99.90;;;;;;4142145;28;20050;-66
2023/12/26 05:14:28;;;;;;;5.38;0.68;;;11.10;99.90;;;;;;4138110;28;20042;-66
2023/12/26 05:16:30;;;;;;;1.05;0.52;;;11.10;99.90;;;;;;4137134;28;20065;-66
2023/12/26 05:18:31;;;;;;;2.08;0.43;;;11.10;99.90;;;;;;4138848;28;20565;-66
2023/12/26 05:20:32;;;;;;;1.23;0.52;;;11.00;99.90;;;;;;4141018;28;20070;-66
2023/12/26 05:22:32;;;;;;;1.40;0.55;;;11.00;99.90;;;;;;4137619;28;20363;-65
2023/12/26 05:24:34;;;;;;;0.90;0.45;;;11.00;99.90;;;;;;4139217;28;20030;-66
2023/12/26 05:26:42;;;;;;;2.97;0.57;;;11.00;99.90;;;;;;4137858;28;20128;-66
2023/12/26 05:28:43;;;;;;;1.88;0.70;;;11.00;99.90;;;;;;4135421;28;20030;-66
2023/12/26 05:30:43;;;;;;;3.17;0.80;;;11.00;99.90;;;;;;4139626;28;20465;-66
2023/12/26 05:32:44;;;;;;;1.40;0.50;;;11.00;99.90;;;;;;4141683;28;20433;-66
2023/12/26 05:34:45;;;;;;;1.48;0.60;;;10.90;99.90;;;;;;4142744;28;20045;-66
2023/12/26 05:36:45;;;;;;;2.17;0.75;;;10.90;99.90;;;;;;4135481;28;20042;-66
2023/12/26 05:38:46;;;;;;;2.53;0.70;;;10.90;99.90;;;;;;4142244;28;20044;-66
2023/12/26 05:40:47;;;;;;;1.65;0.63;;;11.00;99.90;;;;;;4137778;28;20049;-66
2023/12/26 05:42:48;;;;;;;2.25;0.77;;;11.00;99.90;;;;;;4137643;28;20049;-66
2023/12/26 05:44:48;;;;;;;1.83;0.95;;;10.90;99.90;;;;;;4137134;28;20044;-66
2023/12/26 05:46:49;;;;;;;2.05;0.50;;;10.90;99.90;;;;;;4138695;28;20398;-66
2023/12/26 05:48:49;;;;;;;4.00;0.98;;;11.00;99.90;;;;;;4138110;28;20493;-66
2023/12/26 05:50:50;;;;;;;2.17;0.80;;;11.00;99.90;;;;;;4137033;28;20046;-66
2023/12/26 05:52:50;;;;;;;1.60;0.75;;;10.90;99.90;;;;;;4134877;28;20046;-66
2023/12/26 05:54:51;;;;;;;3.08;1.30;;;10.90;99.90;;;;;;4137846;28;20045;-66
2023/12/26 05:56:51;;;;;;;3.03;1.20;;;10.90;99.90;;;;;;4139220;28;20041;-67
2023/12/26 05:58:52;;;;;;;3.75;1.25;;;10.90;99.90;;;;;;4140737;28;20068;-66
2023/12/26 06:00:53;;;;;;;3.70;1.00;;;10.90;99.90;;;;;;4141716;28;20034;-66
2023/12/26 06:02:53;;;;;;;4.53;1.33;;;10.90;99.90;;;;;;4139221;28;20112;-66
2023/12/26 06:04:54;;;;;;;4.47;1.45;;;10.90;99.90;;;;;;4138569;28;20056;-66
2023/12/26 06:06:54;;;;;;;5.72;1.27;;;10.80;99.90;;;;;;4138525;28;20084;-66
2023/12/26 06:08:55;;;;;;;2.55;1.02;;;10.80;99.90;;;;;;4138634;28;20077;-66
2023/12/26 06:10:56;;;;;;;4.97;1.00;;;10.90;99.90;;;;;;4139405;28;20042;-66
2023/12/26 06:12:56;;;;;;;2.70;1.08;;;10.90;99.90;;;;;;4137751;28;20073;-66
2023/12/26 06:14:57;;;;;;;3.45;0.90;;;10.90;99.90;;;;;;4135445;28;20039;-66
2023/12/26 06:16:59;;;;;;;3.03;1.08;;;10.90;99.90;;;;;;4137307;28;20422;-66
2023/12/26 06:19:00;;;;;;;4.82;1.30;;;10.90;99.90;;;;;;4150335;28;20053;-66
2023/12/26 06:21:00;;;;;;;4.50;1.17;;;10.90;99.90;;;;;;4140104;28;20494;-66
2023/12/26 06:23:02;;;;;;;5.82;1.20;;;10.90;99.90;;;;;;4135243;28;20040;-66
2023/12/26 06:25:04;;;;;;;6.28;1.10;;;10.90;99.90;;;;;;4138421;28;20369;-68
2023/12/26 06:27:05;;;;;;;3.13;0.93;;;10.90;99.90;;;;;;4136040;28;20560;-66
2023/12/26 06:29:05;;;;;;;4.93;1.27;;;10.90;99.90;;;;;;4131604;28;20462;-66
2023/12/26 06:31:13;;;;;;;5.03;1.25;;;10.90;99.90;;;;;;4131176;28;20038;-66
2023/12/26 06:33:14;;;;;;;3.03;1.10;;;10.90;99.90;;;;;;4136327;28;20120;-66
2023/12/26 06:35:14;;;;;;;3.22;1.25;;;10.90;99.90;;;;;;4138665;28;20367;-66
2023/12/26 06:37:15;;;;;;;4.53;1.10;;;10.90;99.90;;;;;;4141739;28;20399;-66
2023/12/26 06:39:16;;;;;;;4.45;1.30;;;10.90;99.90;;;;;;4137493;28;20487;-66
2023/12/26 06:41:17;;;;;;;6.35;1.33;;;10.90;99.90;;;;;;4129112;28;20087;-66
2023/12/26 06:43:17;;;;;;;4.78;1.15;;;10.80;99.90;;;;;;4139653;28;20057;-66
2023/12/26 06:45:18;;;;;;;4.53;1.40;;;10.80;99.90;;;;;;4136707;28;20034;-66
2023/12/26 06:47:18;;;;;;;9.23;1.67;;;10.80;99.90;;;;;;4140993;28;20038;-66
2023/12/26 06:49:19;;;;;;;5.88;1.30;;;10.80;99.90;;;;;;4137596;28;20048;-66
2023/12/26 06:51:20;;;;;;;3.35;1.10;;;10.80;99.90;;;;;;4136891;28;20038;-66
2023/12/26 06:53:21;;;;;;;3.23;1.30;;;10.70;99.90;;;;;;4140137;28;20060;-66
2023/12/26 06:55:22;;;;;;;5.00;1.55;;;10.70;99.90;;;;;;4141011;28;20288;-66
2023/12/26 06:57:23;;;;;;;5.57;1.45;;;10.70;99.90;;;;;;4138318;28;20058;-65
2023/12/26 06:59:23;;;;;;;9.00;1.77;;;10.70;99.90;;;;;;4139978;28;20498;-66
2023/12/26 07:01:25;;;;;;;4.53;1.02;;;10.60;99.90;;;;;;4138773;28;20081;-66
2023/12/26 07:03:26;;;;;;;10.30;1.50;;;10.60;99.90;;;;;;4139308;28;20048;-66
2023/12/26 07:05:26;;;;;;;4.70;1.23;;;10.60;99.90;;;;;;4140132;28;20034;-66
2023/12/26 07:07:27;;;;;;;8.00;1.25;;;10.60;99.90;;;;;;4141845;28;20030;-66
2023/12/26 07:09:27;;;;;;;10.65;1.90;;;10.50;99.90;;;;;;4139001;28;20049;-66
2023/12/26 07:11:28;;;;;;;6.55;1.20;;;10.50;99.90;;;;;;4137224;28;20100;-66
2023/12/26 07:13:29;;;;;;;5.82;1.38;;;10.50;99.90;;;;;;4142192;28;20053;-66
2023/12/26 07:15:29;;;;;;;4.50;1.33;;;10.40;99.90;;;;;;4140160;28;20037;-66
2023/12/26 07:17:31;;;;;;;5.50;1.50;;;10.40;99.90;;;;;;4135810;28;20038;-66
2023/12/26 07:19:32;;;;;;;5.97;1.37;;;10.40;99.90;;;;;;4137631;28;20065;-68
2023/12/26 07:21:32;;;;;;;6.57;1.27;;;10.40;99.90;;;;;;4136574;28;20042;-68
2023/12/26 07:23:33;;;;;;;4.07;0.80;;;10.40;99.90;;;;;;4138451;28;20042;-69
2023/12/26 07:25:33;;;;;;;6.55;1.25;;;10.40;99.90;;;;;;4137485;28;20074;-68
2023/12/26 07:27:34;;;;;;;7.40;1.20;;;10.40;99.90;;;;;;4138226;28;20036;-68
2023/12/26 07:29:34;;;;;;;6.57;1.05;;;10.30;99.90;;;;;;4130393;28;20037;-68
2023/12/26 07:31:35;;;;;;;3.45;1.08;;;10.30;99.90;;;;;;4137769;28;20536;-68
2023/12/26 07:33:38;;;;;;;6.13;1.25;;;10.30;99.90;;;;;;4137100;28;20046;-69
2023/12/26 07:35:38;;;;;;;;;;;10.30;99.90;;;;;;4133341;28;20548;-69
2023/12/26 07:37:39;;;;;;;4.80;1.10;;;10.30;99.90;;;;;;4136135;28;19996;-69
2023/12/26 07:39:39;;;;;;;6.72;1.15;;;10.30;99.90;;;;;;4132486;28;20042;-69
2023/12/26 07:41:40;;;;;;;4.85;1.13;;;10.30;99.90;;;;;;4131638;28;20064;-69
2023/12/26 07:43:41;;;;;;;5.70;0.82;;;10.30;99.90;;;;;;4135332;28;20133;-69
2023/12/26 07:45:41;;;;;;;3.28;0.90;;;10.30;99.90;;;;;;4133796;28;20034;-70
2023/12/26 07:47:42;;;;;;;6.32;1.55;;;10.30;99.90;;;;;;4136464;28;20054;-69
2023/12/26 07:49:43;;;;;;;5.05;1.40;;;10.30;99.90;;;;;;4131192;28;20057;-69
2023/12/26 07:51:45;;;;;;;5.72;1.42;;;10.20;99.90;;;;;;4132625;28;20497;-69
2023/12/26 07:53:47;;;;;;;10.30;1.38;;;10.20;99.90;;;;;;4133595;28;20125;-70
2023/12/26 07:55:48;;;;;;;8.60;1.75;;;10.20;99.90;;;;;;4138016;28;20038;-69
2023/12/26 07:57:48;;;;;;;10.25;1.80;;;10.20;99.90;;;;;;4139496;28;20502;-69
2023/12/26 07:59:49;;;;;;;4.20;1.40;;;10.10;99.90;;;;;;4136375;28;20208;-69
2023/12/26 08:01:49;;;;;;;6.63;1.92;;;10.10;99.90;;;;;;4133331;28;20387;-69
2023/12/26 08:03:50;;;;;;;3.80;1.23;;;10.10;99.90;;;;;;4135689;28;20041;-69
2023/12/26 08:05:51;;;;;;;5.43;1.42;;;10.10;99.90;;;;;;4134404;28;20041;-69
2023/12/26 08:07:51;;;;;;;9.18;1.55;;;10.10;99.90;;;;;;4135687;28;20547;-69
2023/12/26 08:09:52;;;;;;;5.53;1.40;;;10.10;99.90;;;;;;4136486;28;20042;-69
2023/12/26 08:11:52;;;;;;;3.65;0.98;;;10.00;99.90;;;;;;4137060;28;20117;-69
2023/12/26 08:13:53;;;;;;;8.45;2.17;;;10.00;99.90;;;;;;4137795;28;20038;-69
2023/12/26 08:15:53;;;;;;;4.22;1.35;;;10.10;99.90;;;;;;4136177;28;20042;-69
2023/12/26 08:17:54;;;;;;;4.25;1.20;;;10.10;99.90;;;;;;4132792;28;20045;-69
2023/12/26 08:19:54;;;;;;;5.25;1.75;;;10.00;99.90;;;;;;4135572;28;20037;-69
2023/12/26 08:21:55;;;;;;;6.32;1.48;;;10.00;99.90;;;;;;4136082;28;20053;-69
2023/12/26 08:23:56;;;;;;;5.75;1.27;;;10.00;99.90;;;;;;4132647;28;20182;-69
2023/12/26 08:25:56;;;;;;;8.27;1.45;;;10.00;99.90;;;;;;4134029;28;20034;-69
2023/12/26 08:27:57;;;;;;;3.25;1.00;;;10.00;99.90;;;;;;4137150;28;20038;-70
2023/12/26 08:29:57;;;;;;;7.00;1.00;;;10.00;99.90;;;;;;4139270;28;20461;-68
2023/12/26 08:31:58;;;;;;;8.38;1.40;;;10.00;99.90;;;;;;4137654;28;20073;-78
2023/12/26 08:33:59;;;;;;;9.65;1.42;;;10.00;99.90;;;;;;4152588;28;20038;-78
2023/12/26 08:35:59;;;;;;;4.57;0.95;;;10.00;99.90;;;;;;4135497;28;20038;-78
2023/12/26 08:38:00;;;;;;;4.63;1.00;;;10.00;99.90;;;;;;4139260;28;20128;-79
2023/12/26 08:40:01;;;;;;;6.00;1.30;;;10.00;99.90;;;;;;4138745;28;20048;-79
2023/12/26 08:42:02;;;;;;;3.95;1.10;;;10.10;99.90;;;;;;4136735;28;20112;-78
2023/12/26 08:44:03;;;;;;;5.90;1.30;;;10.00;99.90;;;;;;4139743;28;20560;-78
2023/12/26 08:46:04;;;;;;;3.97;1.10;;;10.00;99.90;;;;;;4140411;28;20042;-78
2023/12/26 08:48:05;;;;;;;4.88;1.60;;;10.10;99.90;;;;;;4138322;28;20573;-77
2023/12/26 08:50:06;;;;;;;4.95;1.55;;;10.10;99.90;;;;;;4138872;28;20030;-78
2023/12/26 08:52:09;;;;;;;6.70;1.33;;;10.10;99.90;;;;;;4137980;28;20128;-78
2023/12/26 08:54:11;;;;;;;4.00;1.23;;;10.10;99.90;;;;;;4136932;28;20065;-79
2023/12/26 08:56:12;;;;;;;4.78;1.38;;;10.10;99.90;;;;;;4137177;28;20041;-79
2023/12/26 08:58:13;;;;;;;3.60;1.00;;;10.10;99.90;;;;;;4139785;28;20050;-74
2023/12/26 09:00:14;;;;;;;7.68;1.83;;;10.10;99.90;;;;;;4139169;28;20030;-77
2023/12/26 09:02:14;;;;;;;5.97;1.23;;;10.10;99.90;;;;;;4143071;28;20033;-77
2023/12/26 09:04:15;;;;;;;4.97;1.10;;;10.10;99.90;;;;;;4134382;28;20034;-77
2023/12/26 09:06:17;;;;;;;8.85;1.27;;;10.10;99.90;;;;;;4137409;28;20041;-77
2023/12/26 09:08:17;;;;;;;4.10;1.00;;;10.10;99.90;;;;;;4138801;28;20052;-78
2023/12/26 09:10:18;;;;;;;11.55;1.50;;;10.00;99.90;;;;;;4139008;28;20456;-78
2023/12/26 09:12:18;;;;;;;7.18;1.45;;;10.00;99.90;;;;;;4135296;28;20481;-78
2023/12/26 09:14:19;;;;;;;8.88;1.60;;;10.10;99.90;;;;;;4136701;28;20068;-77
2023/12/26 09:16:20;;;;;;;5.13;1.33;;;10.00;99.90;;;;;;4132104;28;20042;-78
2023/12/26 09:18:21;;;;;;;7.07;1.42;;;10.10;99.90;;;;;;4139564;28;20038;-78
2023/12/26 09:20:21;;;;;;;7.05;1.30;;;10.00;99.90;;;;;;4134430;28;20034;-78
2023/12/26 09:22:22;;;;;;;8.70;1.70;;;10.00;99.90;;;;;;4139882;28;20261;-77
2023/12/26 09:24:22;;;;;;;5.78;1.83;;;9.90;99.90;;;;;;4139742;28;20096;-77
2023/12/26 09:26:24;;;;;;;6.30;1.45;;;9.90;99.90;;;;;;4136524;28;20474;-78
2023/12/26 09:28:25;;;;;;;8.10;1.52;;;9.90;99.90;;;;;;4135395;28;20052;-77
2023/12/26 09:30:25;;;;;;;7.78;1.88;;;9.90;99.90;;;;;;4136684;28;20117;-77
2023/12/26 09:32:26;;;;;;;10.93;2.33;;;9.90;99.90;;;;;;4138975;28;20054;-78
2023/12/26 09:34:27;;;;;;;4.07;1.27;;;9.90;99.90;;;;;;4134987;28;20238;-77
2023/12/26 09:36:27;;;;;;;6.70;1.55;;;9.90;99.90;;;;;;4138215;28;21006;-77
2023/12/26 09:38:28;;;;;;;5.60;1.50;;;10.00;99.90;;;;;;4137275;28;20593;-77
2023/12/26 09:40:29;;;;;;;7.90;1.85;;;10.00;99.90;;;;;;4139331;28;20034;-69
2023/12/26 09:42:29;;;;;;;11.55;2.22;;;10.00;99.90;;;;;;4137254;28;20034;-68
2023/12/26 09:44:31;;;;;;;9.93;2.20;;;10.00;99.90;;;;;;4133497;28;20161;-68
2023/12/26 09:46:31;;;;;;;9.65;1.95;;;10.10;99.90;;;;;;4135027;28;20115;-68
2023/12/26 09:48:33;;;;;;;8.38;1.90;;;10.10;99.90;;;;;;4136369;28;20065;-68
2023/12/26 09:50:34;;;;;;;7.10;1.47;;;10.20;99.90;;;;;;4139327;28;20045;-68
2023/12/26 09:52:35;;;;;;;5.50;1.52;;;10.20;99.90;;;;;;4137697;28;20485;-68
2023/12/26 09:54:38;;;;;;;7.45;1.60;;;10.30;99.90;;;;;;4141088;28;20163;-68
2023/12/26 09:56:42;;;;;;;6.07;1.65;;;10.40;99.90;;;;;;4138632;28;20081;-68
2023/12/26 09:58:43;;;;;;;10.52;2.00;;;10.50;99.90;;;;;;4139299;28;20049;-68
2023/12/26 10:00:46;;;;;;;14.48;2.20;;;10.50;99.90;;;;;;4137237;28;20041;-69
2023/12/26 10:02:49;;;;;;;7.43;1.73;;;10.50;99.90;;;;;;4137623;28;20120;-68
2023/12/26 10:04:49;;;;;;;9.43;2.00;;;10.50;99.90;;;;;;4140528;28;20401;-68
2023/12/26 10:06:50;;;;;;;6.38;1.75;;;10.50;99.90;;;;;;4137682;28;20042;-68
2023/12/26 10:08:51;;;;;;;12.90;2.42;;;10.50;99.90;;;;;;4138033;28;20034;-68
2023/12/26 10:10:51;;;;;;;5.60;1.50;;;10.50;99.90;;;;;;4134754;28;20118;-68
2023/12/26 10:12:53;;;;;;;6.88;1.90;;;10.40;99.90;;;;;;4137735;28;20139;-67
2023/12/26 10:15:04;;;;;;;10.40;1.90;;;10.50;99.90;;;;;;4138846;28;20061;-67
2023/12/26 10:17:06;;;;;;;9.43;1.88;;;10.40;99.90;;;;;;4133880;28;20038;-67
2023/12/26 10:19:12;;;;;;;5.03;1.57;;;10.30;99.90;;;;;;4133538;28;20038;-68
2023/12/26 10:21:13;;;;;;;11.88;1.95;;;10.30;99.90;;;;;;4131683;28;20046;-68
2023/12/26 10:23:14;;;;;;;8.43;1.77;;;10.30;99.90;;;;;;4125637;28;20690;-69
2023/12/26 10:25:15;;;;;;;6.30;1.70;;;10.20;99.90;;;;;;4139246;28;20084;-68
2023/12/26 10:27:15;;;;;;;10.93;1.95;;;10.30;99.90;;;;;;4140761;28;20064;-68
2023/12/26 10:29:16;;;;;;;12.07;2.10;;;10.20;99.90;;;;;;4139049;28;20030;-68
2023/12/26 10:31:20;;;;;;;11.15;2.58;;;10.20;99.90;;;;;;4150775;28;20034;-67